Time;durP1;ratioP1;P1;durP2;ratioP2;P2;SDS_P1;SDS_P2;PMS_P1;PMS_P2;Temp;Humidity;BMP_temperature;BMP_pressure;BME280_temperature;BME280_humidity;BME280_pressure;Samples;Min_cycle;Max_cycle;Signal;HPM_P1;HPM_P2
2021/10/08 00:00:59;;;;;;;;;;;;;;;19.57;58.49;100281.19;2084885;28;19916;-46
2021/10/08 00:02:00;;;;;;;;;;;;;;;19.56;58.61;100274.00;2075314;28;20031;-47
2021/10/08 00:03:00;;;;;;;;;;;;;;;19.56;58.70;100274.00;2077282;28;20330;-46
2021/10/08 00:04:00;;;;;;;;;;;;;;;19.57;58.58;100278.44;2072384;28;20339;-46
2021/10/08 00:05:01;;;;;;;;;;;;;;;19.55;58.58;100277.75;2076225;28;19983;-47
2021/10/08 00:06:01;;;;;;;;;;;;;;;19.56;58.70;100276.72;2081966;28;20362;-46
2021/10/08 00:07:02;;;;;;;;;;;;;;;19.55;58.52;100277.75;2083906;28;19917;-46
2021/10/08 00:08:04;;;;;;;;;;;;;;;19.56;58.68;100279.47;2083604;28;19913;-46
2021/10/08 00:09:04;;;;;;;;;;;;;;;19.56;58.68;100282.19;2083140;28;20011;-46
2021/10/08 00:10:05;;;;;;;;;;;;;;;19.55;58.67;100280.50;2083981;28;20554;-46
2021/10/08 00:11:06;;;;;;;;;;;;;;;19.55;58.53;100277.75;2081161;28;19913;-46
2021/10/08 00:12:06;;;;;;;;;;;;;;;19.55;58.63;100272.28;2082591;28;19963;-46
2021/10/08 00:13:06;;;;;;;;;;;;;;;19.55;58.62;100272.28;2084750;28;20492;-47
2021/10/08 00:14:07;;;;;;;;;;;;;;;19.56;58.44;100273.16;2082823;28;19913;-46
2021/10/08 00:15:07;;;;;;;;;;;;;;;19.54;58.70;100270.53;2084780;28;20324;-46
2021/10/08 00:16:08;;;;;;;;;;;;;;;19.55;58.51;100275.03;2087026;28;20451;-46
2021/10/08 00:17:09;;;;;;;;;;;;;;;19.55;58.54;100283.22;2079980;28;19917;-46
2021/10/08 00:18:09;;;;;;;;;;;;;;;19.54;58.60;100281.47;2084514;28;19916;-46
2021/10/08 00:19:10;;;;;;;;;;;;;;;19.55;58.81;100287.81;2085261;28;19904;-46
2021/10/08 00:20:10;;;;;;;;;;;;;;;19.55;58.69;100288.69;2085576;28;19970;-46
2021/10/08 00:21:11;;;;;;;;;;;;;;;19.55;58.59;100285.06;2085568;28;20162;-46
2021/10/08 00:22:11;;;;;;;;;;;;;;;19.56;58.60;100286.81;2079866;28;19917;-46
2021/10/08 00:23:11;;;;;;;;;;;;;;;19.55;58.60;100287.81;2082972;28;20263;-46
2021/10/08 00:24:12;;;;;;;;;;;;;;;19.55;58.65;100288.69;2085352;28;19948;-46
2021/10/08 00:25:12;;;;;;;;;;;;;;;19.55;58.63;100285.97;2083323;28;19934;-46
2021/10/08 00:26:12;;;;;;;;;;;;;;;19.55;58.70;100282.34;2084820;28;19916;-46
2021/10/08 00:27:13;;;;;;;;;;;;;;;19.55;58.61;100288.69;2074866;28;19916;-46
2021/10/08 00:28:13;;;;;;;;;;;;;;;19.54;58.69;100284.22;2074443;28;20125;-46
2021/10/08 00:29:13;;;;;;;;;;;;;;;19.54;58.67;100286.94;2085155;28;19958;-46
2021/10/08 00:30:14;;;;;;;;;;;;;;;19.54;58.77;100297.03;2082588;28;19916;-46
2021/10/08 00:31:14;;;;;;;;;;;;;;;19.54;58.59;100292.41;2085901;28;19923;-46
2021/10/08 00:32:14;;;;;;;;;;;;;;;19.53;58.60;100296.19;2083535;28;19930;-46
2021/10/08 00:33:15;;;;;;;;;;;;;;;19.54;58.77;100294.28;2082131;28;20315;-46
2021/10/08 00:34:15;;;;;;;;;;;;;;;19.54;58.76;100286.94;2086068;28;19966;-46
2021/10/08 00:35:16;;;;;;;;;;;;;;;19.54;58.65;100297.03;2082468;28;20012;-46
2021/10/08 00:36:16;;;;;;;;;;;;;;;19.54;58.68;100289.69;2085134;28;20368;-46
2021/10/08 00:37:16;;;;;;;;;;;;;;;19.54;58.61;100292.41;2083964;28;19916;-46
2021/10/08 00:38:17;;;;;;;;;;;;;;;19.54;58.64;100292.41;2082859;28;20130;-46
2021/10/08 00:39:17;;;;;;;;;;;;;;;19.55;58.87;100290.53;2085634;28;20267;-47
2021/10/08 00:40:17;;;;;;;;;;;;;;;19.53;58.62;100298.91;2082864;28;19916;-46
2021/10/08 00:41:18;;;;;;;;;;;;;;;19.54;58.73;100299.75;2082932;28;20640;-47
2021/10/08 00:42:20;;;;;;;;;;;;;;;19.54;58.67;100292.41;2080058;28;19997;-46
2021/10/08 00:43:21;;;;;;;;;;;;;;;19.53;58.72;100296.19;2084677;28;20019;-46
2021/10/08 00:44:21;;;;;;;;;;;;;;;19.53;58.69;100293.44;2082838;28;19938;-46
2021/10/08 00:45:22;;;;;;;;;;;;;;;19.53;58.69;100296.19;2082551;28;19920;-47
2021/10/08 00:46:22;;;;;;;;;;;;;;;19.53;58.68;100296.19;2084581;28;19913;-46
2021/10/08 00:47:23;;;;;;;;;;;;;;;19.52;58.61;100297.16;2083316;28;20081;-46
2021/10/08 00:48:23;;;;;;;;;;;;;;;19.52;58.74;100299.91;2086410;28;19931;-46
2021/10/08 00:49:23;;;;;;;;;;;;;;;19.52;58.66;100294.44;2082255;28;19909;-46
2021/10/08 00:50:23;;;;;;;;;;;;;;;19.53;58.63;100301.66;2083442;28;19920;-46
2021/10/08 00:51:25;;;;;;;;;;;;;;;19.52;58.72;100291.69;2076004;28;19913;-46
2021/10/08 00:52:25;;;;;;;;;;;;;;;19.52;58.72;100291.69;2074821;28;19916;-46
2021/10/08 00:53:25;;;;;;;;;;;;;;;19.52;58.63;100288.09;2083648;28;19916;-46
2021/10/08 00:54:26;;;;;;;;;;;;;;;19.51;58.66;100290.00;2078454;28;20566;-46
2021/10/08 00:55:26;;;;;;;;;;;;;;;19.51;58.76;100287.25;2080345;28;19916;-46
2021/10/08 00:56:27;;;;;;;;;;;;;;;19.53;58.70;100301.66;2082880;28;20408;-46
2021/10/08 00:57:28;;;;;;;;;;;;;;;19.52;58.60;100297.16;2082027;28;20311;-46
2021/10/08 00:58:29;;;;;;;;;;;;;;;19.53;58.72;100292.59;2079927;28;19955;-46
2021/10/08 00:59:32;;;;;;;;;;;;;;;19.52;58.71;100293.59;2083338;28;19916;-46
2021/10/08 01:00:32;;;;;;;;;;;;;;;19.51;58.64;100298.19;2074453;28;20241;-46
2021/10/08 01:01:32;;;;;;;;;;;;;;;19.52;58.48;100296.31;2075223;28;20037;-46
2021/10/08 01:02:33;;;;;;;;;;;;;;;19.51;58.70;100295.47;2084011;28;19917;-46
2021/10/08 01:03:33;;;;;;;;;;;;;;;19.52;58.61;100288.09;2084127;28;19917;-46
2021/10/08 01:04:34;;;;;;;;;;;;;;;19.51;58.68;100298.19;2082944;28;19917;-46
2021/10/08 01:05:34;;;;;;;;;;;;;;;19.51;58.58;100286.41;2083376;28;20364;-46
2021/10/08 01:06:34;;;;;;;;;;;;;;;19.51;58.75;100292.72;2079421;28;20671;-46
2021/10/08 01:07:35;;;;;;;;;;;;;;;19.51;58.71;100292.72;2078230;28;19916;-46
2021/10/08 01:08:35;;;;;;;;;;;;;;;19.50;58.62;100285.53;2081796;28;19917;-46
2021/10/08 01:09:35;;;;;;;;;;;;;;;19.51;58.63;100292.72;2078754;28;19917;-46
2021/10/08 01:10:39;;;;;;;;;;;;;;;19.51;58.68;100286.41;2083106;28;19912;-46
2021/10/08 01:11:40;;;;;;;;;;;;;;;19.50;58.62;100277.34;2081311;28;19916;-46
2021/10/08 01:12:40;;;;;;;;;;;;;;;19.51;58.73;100280.94;2082197;28;19916;-46
2021/10/08 01:13:40;;;;;;;;;;;;;;;19.51;58.74;100278.19;2080725;28;19916;-46
2021/10/08 01:14:41;;;;;;;;;;;;;;;19.52;58.53;100285.38;2080195;28;19908;-46
2021/10/08 01:15:42;;;;;;;;;;;;;;;19.49;58.68;100281.91;2080532;28;19967;-46
2021/10/08 01:16:42;;;;;;;;;;;;;;;19.49;58.73;100276.44;2084253;28;20296;-46
2021/10/08 01:17:42;;;;;;;;;;;;;;;19.49;58.72;100281.91;2083004;28;19912;-46
2021/10/08 01:18:46;;;;;;;;;;;;;;;19.50;58.67;100285.53;2084309;28;19962;-46
2021/10/08 01:19:46;;;;;;;;;;;;;;;19.50;58.63;100277.34;2085786;28;19912;-46
2021/10/08 01:20:47;;;;;;;;;;;;;;;19.49;58.68;100278.34;2084499;28;19927;-47
2021/10/08 01:21:47;;;;;;;;;;;;;;;19.48;58.70;100274.75;2085170;28;19923;-47
2021/10/08 01:22:48;;;;;;;;;;;;;;;19.49;58.73;100272.88;2084615;28;20254;-46
2021/10/08 01:23:49;;;;;;;;;;;;;;;19.49;58.68;100267.41;2078111;28;19970;-46
2021/10/08 01:24:50;;;;;;;;;;;;;;;19.49;58.70;100271.00;2078090;28;20102;-47
2021/10/08 01:25:51;;;;;;;;;;;;;;;19.49;58.77;100276.44;2085072;28;19916;-46
2021/10/08 01:26:52;;;;;;;;;;;;;;;19.48;58.61;100274.75;2085156;28;19921;-46
2021/10/08 01:27:52;;;;;;;;;;;;;;;19.48;58.74;100266.53;2077381;28;20607;-46
2021/10/08 01:28:53;;;;;;;;;;;;;;;19.48;58.66;100274.75;2068667;28;19917;-46
2021/10/08 01:29:57;;;;;;;;;;;;;;;19.49;58.63;100267.41;2077208;28;19951;-46
2021/10/08 01:30:57;;;;;;;;;;;;;;;19.49;58.65;100273.72;2084500;28;20257;-46
2021/10/08 01:31:57;;;;;;;;;;;;;;;19.49;58.64;100273.72;2082801;28;19966;-46
2021/10/08 01:32:58;;;;;;;;;;;;;;;19.49;58.67;100267.41;2085181;28;19923;-46
2021/10/08 01:33:58;;;;;;;;;;;;;;;19.48;58.72;100263.81;2085789;28;19923;-46
2021/10/08 01:34:58;;;;;;;;;;;;;;;19.48;58.69;100262.94;2082526;28;20318;-46
2021/10/08 01:35:59;;;;;;;;;;;;;;;19.49;58.63;100261.94;2076187;28;20404;-46
2021/10/08 01:36:59;;;;;;;;;;;;;;;19.48;58.64;100266.53;2084595;28;19912;-46
2021/10/08 01:38:00;;;;;;;;;;;;;;;19.49;58.74;100267.41;2084850;28;20349;-46
2021/10/08 01:39:00;;;;;;;;;;;;;;;19.48;58.67;100271.16;2085712;28;19963;-46
2021/10/08 01:40:03;;;;;;;;;;;;;;;19.48;58.59;100272.00;2078811;28;20669;-46
2021/10/08 01:41:03;;;;;;;;;;;;;;;19.48;58.76;100268.41;2076770;28;19920;-46
2021/10/08 01:42:03;;;;;;;;;;;;;;;19.47;58.69;100262.06;2077164;28;19952;-46
2021/10/08 01:43:04;;;;;;;;;;;;;;;19.48;58.68;100261.06;2072630;28;19917;-46
2021/10/08 01:44:04;;;;;;;;;;;;;;;19.48;58.69;100254.75;2085094;28;19927;-47
2021/10/08 01:45:05;;;;;;;;;;;;;;;19.47;58.74;100256.59;2087798;28;19921;-47
2021/10/08 01:46:05;;;;;;;;;;;;;;;19.47;58.73;100247.53;2083888;28;19962;-47
2021/10/08 01:47:06;;;;;;;;;;;;;;;19.47;58.63;100253.00;2088207;28;20356;-47
2021/10/08 01:48:07;;;;;;;;;;;;;;;19.46;58.68;100252.16;2076914;28;19955;-47
2021/10/08 01:49:07;;;;;;;;;;;;;;;19.47;58.74;100247.53;2073918;28;20183;-47
2021/10/08 01:50:07;;;;;;;;;;;;;;;19.46;58.77;100257.63;2085314;28;19963;-47
2021/10/08 01:51:08;;;;;;;;;;;;;;;19.46;58.75;100251.31;2081487;28;20560;-47
2021/10/08 01:52:08;;;;;;;;;;;;;;;19.47;58.67;100253.00;2087704;28;19916;-47
2021/10/08 01:53:09;;;;;;;;;;;;;;;19.47;58.76;100253.00;2086059;28;19913;-47
2021/10/08 01:54:11;;;;;;;;;;;;;;;19.47;58.71;100253.00;2080145;28;19925;-47
2021/10/08 01:55:11;;;;;;;;;;;;;;;19.47;58.68;100258.47;2066898;28;19917;-47
2021/10/08 01:56:12;;;;;;;;;;;;;;;19.47;58.66;100258.47;2077979;28;19921;-47
2021/10/08 01:57:12;;;;;;;;;;;;;;;19.47;58.73;100256.59;2086221;28;19916;-47
2021/10/08 01:58:12;;;;;;;;;;;;;;;19.46;58.67;100262.22;2084447;28;20323;-47
2021/10/08 01:59:13;;;;;;;;;;;;;;;19.47;58.65;100263.94;2084651;28;19977;-47
2021/10/08 02:00:14;;;;;;;;;;;;;;;19.46;58.67;100254.03;2085086;28;19923;-47
2021/10/08 02:01:15;;;;;;;;;;;;;;;19.46;58.64;100262.22;2085981;28;20003;-47
2021/10/08 02:02:15;;;;;;;;;;;;;;;19.47;58.55;100261.22;2083501;28;19912;-47
2021/10/08 02:03:15;;;;;;;;;;;;;;;19.46;58.77;100260.34;2083116;28;19917;-47
2021/10/08 02:04:16;;;;;;;;;;;;;;;19.46;58.70;100262.22;2083894;28;19926;-46
2021/10/08 02:05:16;;;;;;;;;;;;;;;19.45;58.66;100260.50;2084854;28;19928;-47
2021/10/08 02:06:17;;;;;;;;;;;;;;;19.46;58.61;100262.22;2085727;28;20331;-47
2021/10/08 02:07:17;;;;;;;;;;;;;;;19.46;58.69;100267.69;2083614;28;20225;-47
2021/10/08 02:08:17;;;;;;;;;;;;;;;19.45;58.60;100264.13;2084554;28;20383;-47
2021/10/08 02:09:18;;;;;;;;;;;;;;;19.45;58.58;100255.03;2086169;28;19928;-47
2021/10/08 02:10:18;;;;;;;;;;;;;;;19.46;58.63;100264.97;2083283;28;20242;-47
2021/10/08 02:11:18;;;;;;;;;;;;;;;19.44;58.57;100265.09;2085592;28;19982;-47
2021/10/08 02:12:19;;;;;;;;;;;;;;;19.45;58.59;100265.97;2083850;28;19917;-47
2021/10/08 02:13:19;;;;;;;;;;;;;;;19.44;58.59;100273.31;2076326;28;19920;-47
2021/10/08 02:14:19;;;;;;;;;;;;;;;19.44;58.62;100270.56;2074753;28;19923;-47
2021/10/08 02:15:20;;;;;;;;;;;;;;;19.45;58.64;100271.44;2085894;28;19916;-47
2021/10/08 02:16:20;;;;;;;;;;;;;;;19.46;58.58;100267.69;2082311;28;20310;-47
2021/10/08 02:17:20;;;;;;;;;;;;;;;19.45;58.52;100265.97;2088611;28;19920;-47
2021/10/08 02:18:21;;;;;;;;;;;;;;;19.45;58.55;100264.13;2087312;28;20116;-47
2021/10/08 02:19:21;;;;;;;;;;;;;;;19.45;58.54;100265.97;2083463;28;19916;-47
2021/10/08 02:20:22;;;;;;;;;;;;;;;19.45;58.68;100263.22;2084237;28;19985;-47
2021/10/08 02:21:23;;;;;;;;;;;;;;;19.44;58.57;100264.25;2075209;28;19959;-47
2021/10/08 02:22:23;;;;;;;;;;;;;;;19.44;58.67;100265.09;2076133;28;20364;-47
2021/10/08 02:23:24;;;;;;;;;;;;;;;19.45;58.58;100257.75;2084481;28;19966;-47
2021/10/08 02:24:24;;;;;;;;;;;;;;;19.44;58.53;100256.91;2086625;28;19924;-47
2021/10/08 02:25:24;;;;;;;;;;;;;;;19.45;58.71;100255.03;2078148;28;20308;-47
2021/10/08 02:26:25;;;;;;;;;;;;;;;19.44;58.53;100258.78;2080903;28;20244;-47
2021/10/08 02:27:25;;;;;;;;;;;;;;;19.44;58.60;100253.31;2080503;28;19916;-47
2021/10/08 02:28:25;;;;;;;;;;;;;;;19.44;58.53;100247.84;2075613;28;19960;-47
2021/10/08 02:29:26;;;;;;;;;;;;;;;19.44;58.63;100253.31;2074440;28;19971;-47
2021/10/08 02:30:26;;;;;;;;;;;;;;;19.44;58.61;100259.63;2084728;28;20327;-47
2021/10/08 02:31:26;;;;;;;;;;;;;;;19.43;58.52;100255.19;2083590;28;20182;-47
2021/10/08 02:32:26;;;;;;;;;;;;;;;19.43;58.67;100259.81;2085002;28;19996;-46
2021/10/08 02:33:27;;;;;;;;;;;;;;;19.43;58.65;100252.47;2084645;28;19917;-47
2021/10/08 02:34:27;;;;;;;;;;;;;;;19.43;58.50;100249.72;2083647;28;19924;-47
2021/10/08 02:35:28;;;;;;;;;;;;;;;19.44;58.55;100253.31;2077332;28;19970;-47
2021/10/08 02:36:28;;;;;;;;;;;;;;;19.43;58.64;100257.06;2080114;28;20178;-47
2021/10/08 02:37:28;;;;;;;;;;;;;;;19.43;58.58;100251.59;2081053;28;19935;-47
2021/10/08 02:38:29;;;;;;;;;;;;;;;19.43;58.57;100257.06;2084937;28;19916;-47
2021/10/08 02:39:29;;;;;;;;;;;;;;;19.43;58.63;100251.59;2086005;28;19924;-47
2021/10/08 02:40:30;;;;;;;;;;;;;;;19.42;58.64;100250.72;2080349;28;19916;-47
2021/10/08 02:41:30;;;;;;;;;;;;;;;19.43;58.65;100257.06;2084665;28;19920;-47
2021/10/08 02:42:30;;;;;;;;;;;;;;;19.43;58.63;100251.59;2084317;28;20284;-47
2021/10/08 02:43:31;;;;;;;;;;;;;;;19.42;58.57;100250.72;2086061;28;19905;-47
2021/10/08 02:44:32;;;;;;;;;;;;;;;19.43;58.57;100257.06;2078579;28;19917;-47
2021/10/08 02:45:32;;;;;;;;;;;;;;;19.42;58.60;100252.59;2083462;28;19919;-47
2021/10/08 02:46:33;;;;;;;;;;;;;;;19.42;58.70;100256.19;2083442;28;20006;-47
2021/10/08 02:47:33;;;;;;;;;;;;;;;19.42;58.67;100256.19;2081427;28;19923;-47
2021/10/08 02:48:34;;;;;;;;;;;;;;;19.42;58.59;100255.31;2086301;28;19938;-47
2021/10/08 02:49:35;;;;;;;;;;;;;;;19.42;58.64;100256.19;2085316;28;19927;-46
2021/10/08 02:50:35;;;;;;;;;;;;;;;19.43;58.62;100254.34;2085224;28;19966;-48
2021/10/08 02:51:36;;;;;;;;;;;;;;;19.42;58.63;100255.31;2084636;28;19923;-47
2021/10/08 02:52:36;;;;;;;;;;;;;;;19.42;58.58;100245.25;2084928;28;19916;-47
2021/10/08 02:53:36;;;;;;;;;;;;;;;19.43;58.56;100248.88;2083109;28;19948;-46
2021/10/08 02:54:37;;;;;;;;;;;;;;;19.42;58.70;100244.41;2084275;28;20577;-47
2021/10/08 02:55:37;;;;;;;;;;;;;;;19.42;58.58;100249.88;2085041;28;19917;-47
2021/10/08 02:56:37;;;;;;;;;;;;;;;19.42;58.55;100247.13;2083990;28;19932;-47
2021/10/08 02:57:38;;;;;;;;;;;;;;;19.43;58.49;100240.66;2084326;28;19917;-47
2021/10/08 02:58:38;;;;;;;;;;;;;;;19.41;58.58;100238.06;2083205;28;20543;-47
2021/10/08 02:59:39;;;;;;;;;;;;;;;19.42;58.59;100244.41;2084486;28;20118;-47
2021/10/08 03:00:39;;;;;;;;;;;;;;;19.42;58.59;100238.94;2084177;28;20357;-47
2021/10/08 03:01:40;;;;;;;;;;;;;;;19.41;58.66;100237.22;2085149;28;19913;-47
2021/10/08 03:02:40;;;;;;;;;;;;;;;19.41;58.66;100237.22;2079056;28;20380;-47
2021/10/08 03:03:40;;;;;;;;;;;;;;;19.41;58.60;100238.06;2084265;28;19976;-47
2021/10/08 03:04:42;;;;;;;;;;;;;;;19.42;58.65;100241.66;2084101;28;20723;-46
2021/10/08 03:05:42;;;;;;;;;;;;;;;19.41;58.62;100243.53;2083258;28;19916;-44
2021/10/08 03:06:42;;;;;;;;;;;;;;;19.42;58.49;100238.94;2084905;28;19936;-44
2021/10/08 03:07:43;;;;;;;;;;;;;;;19.42;58.57;100233.47;2080345;28;19931;-43
2021/10/08 03:08:45;;;;;;;;;;;;;;;19.41;58.57;100232.59;2084205;28;20116;-44
2021/10/08 03:09:45;;;;;;;;;;;;;;;19.41;58.52;100226.28;2084088;28;19968;-44
2021/10/08 03:10:45;;;;;;;;;;;;;;;19.41;58.54;100231.75;2080068;28;20789;-44
2021/10/08 03:11:46;;;;;;;;;;;;;;;19.41;58.58;100226.28;2084390;28;20500;-43
2021/10/08 03:12:47;;;;;;;;;;;;;;;19.41;58.57;100231.75;2084620;28;19920;-43
2021/10/08 03:13:47;;;;;;;;;;;;;;;19.41;58.57;100226.28;2083755;28;20324;-44
2021/10/08 03:14:47;;;;;;;;;;;;;;;19.41;58.64;100226.28;2086475;28;20374;-44
2021/10/08 03:15:48;;;;;;;;;;;;;;;19.41;58.51;100229.00;2079893;28;19921;-44
2021/10/08 03:16:48;;;;;;;;;;;;;;;19.40;58.69;100230.00;2083261;28;19924;-44
2021/10/08 03:17:48;;;;;;;;;;;;;;;19.41;58.59;100231.75;2083439;28;19920;-44
2021/10/08 03:18:49;;;;;;;;;;;;;;;19.40;58.80;100221.81;2083608;28;20278;-44
2021/10/08 03:19:49;;;;;;;;;;;;;;;19.40;58.60;100224.53;2084189;28;19970;-44
2021/10/08 03:20:49;;;;;;;;;;;;;;;19.39;58.58;100223.69;2084596;28;19950;-44
2021/10/08 03:21:50;;;;;;;;;;;;;;;19.39;58.70;100223.69;2086896;28;19916;-44
2021/10/08 03:22:50;;;;;;;;;;;;;;;19.39;58.58;100220.09;2083535;28;20003;-44
2021/10/08 03:23:50;;;;;;;;;;;;;;;19.40;58.61;100224.53;2085592;28;19955;-44
2021/10/08 03:24:50;;;;;;;;;;;;;;;19.39;58.67;100222.84;2083649;28;19917;-44
2021/10/08 03:25:51;;;;;;;;;;;;;;;19.39;58.56;100222.84;2085165;28;19952;-44
2021/10/08 03:26:51;;;;;;;;;;;;;;;19.39;58.53;100222.84;2084209;28;20265;-44
2021/10/08 03:27:51;;;;;;;;;;;;;;;19.39;58.54;100228.28;2076485;28;19917;-44
2021/10/08 03:28:51;;;;;;;;;;;;;;;19.38;58.61;100226.59;2077892;28;19905;-44
2021/10/08 03:29:52;;;;;;;;;;;;;;;19.38;58.61;100221.97;2087037;28;20028;-44
2021/10/08 03:30:52;;;;;;;;;;;;;;;19.38;58.60;100227.44;2086366;28;20335;-44
2021/10/08 03:31:53;;;;;;;;;;;;;;;19.38;58.60;100227.44;2084595;28;19916;-44
2021/10/08 03:32:53;;;;;;;;;;;;;;;19.38;58.58;100226.59;2086683;28;19962;-43
2021/10/08 03:33:53;;;;;;;;;;;;;;;19.38;58.53;100221.13;2085364;28;19924;-44
2021/10/08 03:34:54;;;;;;;;;;;;;;;19.38;58.63;100221.13;2079972;28;19925;-44
2021/10/08 03:35:54;;;;;;;;;;;;;;;19.39;58.58;100228.28;2083054;28;20470;-43
2021/10/08 03:36:58;;;;;;;;;;;;;;;19.38;58.53;100232.06;2080670;28;19921;-44
2021/10/08 03:38:06;;;;;;;;;;;;;;;19.38;58.61;100229.31;2080394;28;19908;-44
2021/10/08 03:39:08;;;;;;;;;;;;;;;19.38;58.56;100234.78;2080193;28;20011;-43
2021/10/08 03:40:10;;;;;;;;;;;;;;;19.37;58.55;100230.31;2086773;28;19956;-44
2021/10/08 03:41:14;;;;;;;;;;;;;;;19.37;58.62;100231.16;2071778;28;19913;-44
2021/10/08 03:42:18;;;;;;;;;;;;;;;19.38;58.54;100232.06;2076737;28;19996;-43
2021/10/08 03:43:18;;;;;;;;;;;;;;;19.37;58.56;100235.78;2086045;28;19962;-44
2021/10/08 03:44:19;;;;;;;;;;;;;;;19.37;58.52;100241.25;2083314;28;20013;-44
2021/10/08 03:45:20;;;;;;;;;;;;;;;19.37;58.70;100235.78;2084513;28;19924;-44
2021/10/08 03:46:20;;;;;;;;;;;;;;;19.37;58.54;100235.78;2084582;28;19919;-45
2021/10/08 03:47:29;;;;;;;;;;;;;;;19.37;58.56;100238.50;2083385;28;19916;-44
2021/10/08 03:49:33;;;;;;;;;;;;;;;19.37;58.58;100235.78;2084366;28;19916;-44
2021/10/08 03:50:33;;;;;;;;;;;;;;;19.37;58.54;100241.25;2074595;28;19913;-44
2021/10/08 03:51:34;;;;;;;;;;;;;;;19.37;58.54;100246.72;2063804;28;20670;-44
2021/10/08 03:52:35;;;;;;;;;;;;;;;19.36;58.61;100251.31;2074910;28;19917;-44
2021/10/08 03:53:35;;;;;;;;;;;;;;;19.36;58.64;100256.78;2083079;28;19912;-44
2021/10/08 03:54:35;;;;;;;;;;;;;;;19.36;58.52;100250.47;2085175;28;20042;-44
2021/10/08 03:55:36;;;;;;;;;;;;;;;19.35;58.57;100252.31;2085144;28;19928;-44
2021/10/08 03:56:36;;;;;;;;;;;;;;;19.36;58.53;100255.94;2080455;28;19920;-44
2021/10/08 03:57:36;;;;;;;;;;;;;;;19.35;58.48;100248.72;2075614;28;19917;-44
2021/10/08 03:58:37;;;;;;;;;;;;;;;19.35;58.53;100244.13;2080370;28;19923;-44
2021/10/08 03:59:37;;;;;;;;;;;;;;;19.36;58.57;100253.19;2081320;28;20178;-44
2021/10/08 04:00:37;;;;;;;;;;;;;;;19.35;58.44;100255.06;2084478;28;19938;-44
2021/10/08 04:01:38;;;;;;;;;;;;;;;19.36;58.60;100250.47;2084633;28;20011;-44
2021/10/08 04:02:38;;;;;;;;;;;;;;;19.36;58.47;100247.75;2083514;28;20125;-43
2021/10/08 04:03:39;;;;;;;;;;;;;;;19.35;58.39;100243.25;2083176;28;19917;-44
2021/10/08 04:04:39;;;;;;;;;;;;;;;19.35;58.48;100243.25;2085914;28;19913;-44
2021/10/08 04:05:40;;;;;;;;;;;;;;;19.35;58.43;100249.59;2084385;28;19919;-44
2021/10/08 04:06:40;;;;;;;;;;;;;;;19.35;58.57;100256.94;2085189;28;19924;-47
2021/10/08 04:07:41;;;;;;;;;;;;;;;19.36;58.47;100250.47;2075249;28;20385;-44
2021/10/08 04:08:41;;;;;;;;;;;;;;;19.35;58.44;100248.72;2075836;28;19924;-43
2021/10/08 04:09:42;;;;;;;;;;;;;;;19.36;58.51;100255.94;2085564;28;19916;-44
2021/10/08 04:10:42;;;;;;;;;;;;;;;19.35;58.52;100254.19;2083336;28;19918;-44
2021/10/08 04:11:42;;;;;;;;;;;;;;;19.35;58.49;100260.53;2083650;28;19913;-44
2021/10/08 04:12:43;;;;;;;;;;;;;;;19.35;58.55;100255.06;2084782;28;20002;-44
2021/10/08 04:13:43;;;;;;;;;;;;;;;19.35;58.45;100252.31;2083864;28;20500;-44
2021/10/08 04:14:43;;;;;;;;;;;;;;;19.35;58.52;100254.19;2085268;28;19908;-44
2021/10/08 04:15:43;;;;;;;;;;;;;;;19.35;58.41;100256.94;2083426;28;20211;-44
2021/10/08 04:16:44;;;;;;;;;;;;;;;19.35;58.40;100259.66;2083562;28;20082;-44
2021/10/08 04:17:44;;;;;;;;;;;;;;;19.35;58.48;100256.94;2084880;28;19916;-44
2021/10/08 04:18:44;;;;;;;;;;;;;;;19.34;58.49;100252.50;2085217;28;19923;-44
2021/10/08 04:19:45;;;;;;;;;;;;;;;19.35;58.36;100256.94;2084935;28;19909;-44
2021/10/08 04:20:45;;;;;;;;;;;;;;;19.36;58.46;100255.94;2085155;28;19962;-44
2021/10/08 04:21:45;;;;;;;;;;;;;;;19.35;58.50;100259.66;2083954;28;19932;-44
2021/10/08 04:22:46;;;;;;;;;;;;;;;19.36;58.38;100266.88;2083879;28;20331;-44
2021/10/08 04:23:46;;;;;;;;;;;;;;;19.34;58.50;100264.28;2086510;28;20408;-44
2021/10/08 04:24:46;;;;;;;;;;;;;;;19.34;58.40;100264.28;2084513;28;19923;-43
2021/10/08 04:25:47;;;;;;;;;;;;;;;19.35;58.47;100271.44;2083589;28;20235;-44
2021/10/08 04:26:47;;;;;;;;;;;;;;;19.34;58.41;100267.00;2085054;28;19917;-44
2021/10/08 04:27:47;;;;;;;;;;;;;;;19.34;58.40;100264.28;2088690;28;19939;-44
2021/10/08 04:28:48;;;;;;;;;;;;;;;19.34;58.39;100267.00;2074983;28;19992;-44
2021/10/08 04:29:48;;;;;;;;;;;;;;;19.34;58.42;100263.41;2072250;28;19927;-44
2021/10/08 04:30:48;;;;;;;;;;;;;;;19.34;58.36;100271.63;2083502;28;19924;-44
2021/10/08 04:31:49;;;;;;;;;;;;;;;19.34;58.43;100274.34;2082869;28;20034;-44
2021/10/08 04:32:49;;;;;;;;;;;;;;;19.33;58.43;100275.34;2075489;28;20070;-43
2021/10/08 04:33:49;;;;;;;;;;;;;;;19.33;58.42;100278.97;2075002;28;19921;-44
2021/10/08 04:34:50;;;;;;;;;;;;;;;19.34;58.51;100277.09;2085630;28;19916;-44
2021/10/08 04:35:50;;;;;;;;;;;;;;;19.33;58.49;100278.06;2076764;28;20347;-44
2021/10/08 04:36:51;;;;;;;;;;;;;;;19.33;58.38;100272.59;2075782;28;19919;-45
2021/10/08 04:37:51;;;;;;;;;;;;;;;19.33;58.42;100273.50;2068270;28;19921;-44
2021/10/08 04:38:51;;;;;;;;;;;;;;;19.33;58.48;100284.44;2076231;28;20334;-44
2021/10/08 04:39:52;;;;;;;;;;;;;;;19.33;58.51;100289.00;2082077;28;20097;-44
2021/10/08 04:40:53;;;;;;;;;;;;;;;19.33;58.52;100280.81;2084503;28;19916;-44
2021/10/08 04:41:53;;;;;;;;;;;;;;;19.32;58.51;100287.31;2075909;28;19913;-44
2021/10/08 04:42:53;;;;;;;;;;;;;;;19.32;58.50;100279.09;2077616;28;19908;-44
2021/10/08 04:43:54;;;;;;;;;;;;;;;19.33;58.46;100278.06;2083766;28;19916;-44
2021/10/08 04:44:54;;;;;;;;;;;;;;;19.33;58.48;100281.69;2083296;28;20325;-43
2021/10/08 04:45:54;;;;;;;;;;;;;;;19.32;58.42;100274.50;2082710;28;19969;-44
2021/10/08 04:46:55;;;;;;;;;;;;;;;19.32;58.48;100274.50;2080087;28;19916;-44
2021/10/08 04:47:56;;;;;;;;;;;;;;;19.32;58.56;100273.63;2082837;28;20020;-44
2021/10/08 04:48:57;;;;;;;;;;;;;;;19.32;58.52;100271.75;2077847;28;19943;-44
2021/10/08 04:49:57;;;;;;;;;;;;;;;19.32;58.35;100276.38;2092632;28;19937;-44
2021/10/08 04:50:57;;;;;;;;;;;;;;;19.32;58.42;100281.84;2084397;28;19970;-44
2021/10/08 04:51:58;;;;;;;;;;;;;;;19.32;58.52;100273.63;2082753;28;19913;-44
2021/10/08 04:52:58;;;;;;;;;;;;;;;19.31;58.39;100275.50;2083587;28;20175;-44
2021/10/08 04:53:58;;;;;;;;;;;;;;;19.30;58.51;100276.50;2083826;28;19916;-44
2021/10/08 04:54:58;;;;;;;;;;;;;;;19.31;58.46;100275.50;2083964;28;20560;-44
2021/10/08 04:55:59;;;;;;;;;;;;;;;19.32;58.50;100273.63;2077358;28;20325;-44
2021/10/08 04:56:59;;;;;;;;;;;;;;;19.31;58.40;100278.25;2079227;28;19940;-44
2021/10/08 04:57:59;;;;;;;;;;;;;;;19.32;58.47;100276.38;2074066;28;19923;-44
2021/10/08 04:59:00;;;;;;;;;;;;;;;19.31;58.44;100277.38;2076470;28;20143;-44
2021/10/08 05:00:00;;;;;;;;;;;;;;;19.31;58.42;100269.19;2085103;28;20302;-44
2021/10/08 05:01:00;;;;;;;;;;;;;;;19.32;58.46;100276.38;2086482;28;19926;-44
2021/10/08 05:02:01;;;;;;;;;;;;;;;19.31;58.41;100275.50;2085454;28;19916;-44
2021/10/08 05:03:07;;;;;;;;;;;;;;;19.31;58.53;100274.66;2080562;28;19972;-44
2021/10/08 05:04:08;;;;;;;;;;;;;;;19.32;58.35;100270.91;2077830;28;19980;-44
2021/10/08 05:05:08;;;;;;;;;;;;;;;19.31;58.44;100261.84;2084315;28;20575;-44
2021/10/08 05:06:08;;;;;;;;;;;;;;;19.31;58.37;100263.72;2083519;28;19921;-44
2021/10/08 05:07:09;;;;;;;;;;;;;;;19.31;58.41;100259.09;2085543;28;19913;-45
2021/10/08 05:08:09;;;;;;;;;;;;;;;19.30;58.43;100262.84;2083788;28;19920;-44
2021/10/08 05:09:09;;;;;;;;;;;;;;;19.31;58.44;100266.47;2085582;28;19927;-44
2021/10/08 05:10:10;;;;;;;;;;;;;;;19.31;58.45;100263.72;2087377;28;19963;-44
2021/10/08 05:11:11;;;;;;;;;;;;;;;19.31;58.40;100269.19;2083974;28;19970;-44
2021/10/08 05:12:11;;;;;;;;;;;;;;;19.31;58.36;100266.47;2086070;28;20882;-44